Iselin, New Jersey
Current Conditions -  °F | °C
As of 10:15 PM on Saturday 25 Oct 2014 (Local Time) from KLDJ Reporting Station
Clear Clear  
Wind Chill: 18°   Ceiling: Unl
Heat Index: 18°   Visibility: 10mi
Dew Point:   Wind: 7mph
Humidity: 55%   Direction: 260°W
Pressure: 29.63"   Gusts: NA
Location:  40.57°N, 74.32°W
Report Text: KLDJ 260215Z AUTO 26006KT 10SM CLR 18/09 A2963 RMK AO2 T01800088
Loading
Personal Weather Stations






























Interactive Weather Map
Tropical Storm Tracking
New forecast layout! Learn more

10-Day Weather Forecast

Advertisements
Track Severe Weather on mobile